createdAt,value
2023-01-30T00:02:46.851Z,0.00
2023-01-30T00:06:16.073Z,0.00
2023-01-30T00:09:45.020Z,0.00
2023-01-30T00:13:13.837Z,0.00
2023-01-30T00:16:35.150Z,0.00
2023-01-30T00:19:57.838Z,0.00
2023-01-30T00:23:26.925Z,0.00
2023-01-30T00:26:56.633Z,0.00
2023-01-30T00:30:13.162Z,0.00
2023-01-30T00:33:41.352Z,0.00
2023-01-30T00:37:10.843Z,0.00
2023-01-30T00:40:40.045Z,0.00
2023-01-30T00:44:21.022Z,0.00
2023-01-30T00:47:50.726Z,0.00
2023-01-30T00:51:19.607Z,0.00
2023-01-30T00:54:42.602Z,0.00
2023-01-30T00:58:11.873Z,0.00
2023-01-30T01:01:40.966Z,0.00
2023-01-30T01:04:52.808Z,0.00
2023-01-30T01:08:14.641Z,0.00
2023-01-30T01:11:47.118Z,0.00
2023-01-30T01:15:16.663Z,0.00
2023-01-30T01:18:46.355Z,0.00
2023-01-30T01:22:15.917Z,0.00
2023-01-30T01:25:28.244Z,0.00
2023-01-30T01:28:56.533Z,0.00
2023-01-30T01:32:25.757Z,0.00
2023-01-30T01:35:53.975Z,0.00
2023-01-30T01:39:23.214Z,0.00
2023-01-30T01:42:51.906Z,0.00
2023-01-30T01:46:23.374Z,0.10
2023-01-30T01:50:01.064Z,0.10
2023-01-30T01:53:10.812Z,0.10
2023-01-30T01:56:24.898Z,0.20
2023-01-30T01:59:48.238Z,0.30
2023-01-30T02:02:57.444Z,0.40
2023-01-30T02:06:07.916Z,0.30
2023-01-30T02:09:37.036Z,0.30
2023-01-30T02:13:07.156Z,0.40
2023-01-30T02:16:36.757Z,0.50
2023-01-30T02:20:12.120Z,0.60
2023-01-30T02:23:44.926Z,0.70
2023-01-30T02:27:27.126Z,0.60
2023-01-30T02:31:00.702Z,0.70
2023-01-30T02:34:32.518Z,0.60
2023-01-30T02:38:03.870Z,0.50
2023-01-30T02:41:33.376Z,0.60
2023-01-30T02:44:37.940Z,0.50
2023-01-30T02:48:16.692Z,0.60
2023-01-30T02:51:52.309Z,0.70
2023-01-30T02:54:39.217Z,0.80
2023-01-30T02:58:07.948Z,0.70
2023-01-30T03:01:57.739Z,1.10
2023-01-30T03:05:41.330Z,1.00
2023-01-30T03:09:11.647Z,3.00
2023-01-30T03:12:46.543Z,3.40
2023-01-30T03:16:16.351Z,3.70
2023-01-30T03:19:45.037Z,4.70
2023-01-30T03:23:13.800Z,5.00
2023-01-30T03:26:26.816Z,5.70
2023-01-30T03:29:48.907Z,6.30
2023-01-30T03:33:17.718Z,5.20
2023-01-30T03:36:40.717Z,5.40
2023-01-30T03:40:10.011Z,4.50
2023-01-30T03:43:38.681Z,5.40
2023-01-30T03:47:06.826Z,5.20
2023-01-30T03:50:36.090Z,4.80
2023-01-30T03:53:55.409Z,4.20
2023-01-30T03:57:24.466Z,5.70
2023-01-30T04:00:46.987Z,4.50
2023-01-30T04:04:16.081Z,5.40
2023-01-30T04:07:35.577Z,5.50
2023-01-30T04:11:04.724Z,5.30
2023-01-30T04:14:33.926Z,6.10
2023-01-30T04:18:03.580Z,5.70
2023-01-30T04:21:32.462Z,3.60
2023-01-30T04:25:01.633Z,3.80
2023-01-30T04:28:30.977Z,3.40
2023-01-30T04:31:59.885Z,3.30
2023-01-30T04:35:29.239Z,2.30
2023-01-30T04:38:58.757Z,2.60
2023-01-30T04:42:27.501Z,2.20
2023-01-30T04:45:56.863Z,2.70
2023-01-30T04:49:26.160Z,2.40
2023-01-30T04:52:55.129Z,1.40
2023-01-30T04:56:54.798Z,1.60
2023-01-30T05:00:02.541Z,1.50
2023-01-30T05:03:31.528Z,1.90
2023-01-30T05:06:59.902Z,1.80
2023-01-30T05:10:28.773Z,1.20
2023-01-30T05:13:57.922Z,1.00
2023-01-30T05:17:27.113Z,1.20
2023-01-30T05:20:49.929Z,0.80
2023-01-30T05:24:18.811Z,1.20
2023-01-30T05:27:47.771Z,1.30
2023-01-30T05:31:16.382Z,1.10
2023-01-30T05:34:31.068Z,0.90
2023-01-30T05:38:00.277Z,1.30
2023-01-30T05:41:28.989Z,1.00
2023-01-30T05:44:58.372Z,0.80
2023-01-30T05:48:27.436Z,0.70
2023-01-30T05:51:56.567Z,0.90
2023-01-30T05:55:18.813Z,0.70
2023-01-30T05:58:40.643Z,0.70
2023-01-30T06:02:11.104Z,0.70
2023-01-30T06:05:40.135Z,0.80
2023-01-30T06:08:59.171Z,0.90
2023-01-30T06:12:28.169Z,0.70
2023-01-30T06:15:55.883Z,0.80
2023-01-30T06:19:24.968Z,1.10
2023-01-30T06:22:53.877Z,0.70
2023-01-30T06:26:26.274Z,0.70
2023-01-30T06:29:55.167Z,0.70
2023-01-30T06:33:24.223Z,0.90
2023-01-30T06:36:53.301Z,0.60
2023-01-30T06:40:22.102Z,0.90
2023-01-30T06:43:51.364Z,1.20
2023-01-30T06:47:20.152Z,0.70
2023-01-30T06:50:48.934Z,1.00
2023-01-30T06:54:17.873Z,0.90
2023-01-30T06:57:46.733Z,0.60
2023-01-30T07:01:16.539Z,0.60
2023-01-30T07:04:35.885Z,0.60
2023-01-30T07:08:05.066Z,0.50
2023-01-30T07:11:33.921Z,0.40
2023-01-30T07:15:03.942Z,0.40
2023-01-30T07:18:32.777Z,0.40
2023-01-30T07:22:03.363Z,0.40
2023-01-30T07:25:31.403Z,0.30
2023-01-30T07:29:00.878Z,0.40
2023-01-30T07:32:29.303Z,0.30
2023-01-30T07:35:58.718Z,0.40
2023-01-30T07:39:27.889Z,0.30
2023-01-30T07:42:57.279Z,0.50
2023-01-30T07:46:29.395Z,0.30
2023-01-30T07:49:58.579Z,0.40
2023-01-30T07:53:27.543Z,0.30
2023-01-30T07:56:56.610Z,0.40
2023-01-30T08:00:06.115Z,0.40
2023-01-30T08:03:35.179Z,0.30
2023-01-30T08:07:04.218Z,0.30
2023-01-30T08:10:42.214Z,0.30
2023-01-30T08:14:12.681Z,0.30
2023-01-30T08:17:34.381Z,0.30
2023-01-30T08:21:03.902Z,0.20
2023-01-30T08:24:33.398Z,0.30
2023-01-30T08:27:55.374Z,0.30
2023-01-30T08:31:24.606Z,0.30
2023-01-30T08:34:53.749Z,0.30
2023-01-30T08:38:22.461Z,0.40
2023-01-30T08:41:51.351Z,0.30
2023-01-30T08:45:20.642Z,0.30
2023-01-30T08:48:50.405Z,0.30
2023-01-30T08:52:19.556Z,0.30
2023-01-30T08:55:32.250Z,0.30
2023-01-30T08:59:01.494Z,0.30
2023-01-30T09:02:31.116Z,0.30
2023-01-30T09:06:00.310Z,0.20
2023-01-30T09:09:19.552Z,0.10
2023-01-30T09:12:48.351Z,0.20
2023-01-30T09:16:00.046Z,0.30
2023-01-30T09:19:29.212Z,0.20
2023-01-30T09:22:58.466Z,0.30
2023-01-30T09:26:27.604Z,0.30
2023-01-30T09:29:56.909Z,0.30
2023-01-30T09:33:18.699Z,0.30
2023-01-30T09:36:47.973Z,0.30
2023-01-30T09:40:17.509Z,0.20
2023-01-30T09:44:24.644Z,0.20
2023-01-30T09:47:48.932Z,0.20
2023-01-30T09:51:36.619Z,0.20
2023-01-30T09:55:06.040Z,0.20
2023-01-30T09:58:34.711Z,0.30
2023-01-30T10:02:09.723Z,0.20
2023-01-30T10:05:38.850Z,0.20
2023-01-30T10:09:20.474Z,0.20
2023-01-30T10:12:55.768Z,0.20
2023-01-30T10:16:31.211Z,0.30
2023-01-30T10:20:01.619Z,0.20
2023-01-30T10:23:36.914Z,0.10
2023-01-30T10:27:12.065Z,0.30
2023-01-30T10:30:41.219Z,0.10
2023-01-30T10:34:15.542Z,0.10
2023-01-30T10:38:09.694Z,0.20
2023-01-30T10:41:37.864Z,0.20
2023-01-30T10:45:07.192Z,0.30
2023-01-30T10:48:44.120Z,0.20
2023-01-30T10:52:13.220Z,0.20
2023-01-30T10:55:53.883Z,0.20
2023-01-30T10:59:40.976Z,0.20
2023-01-30T11:03:25.161Z,0.20
2023-01-30T11:06:49.637Z,0.30
2023-01-30T11:10:24.678Z,0.30
2023-01-30T11:14:01.077Z,0.20
2023-01-30T11:17:30.921Z,0.20
2023-01-30T11:21:00.140Z,0.20
2023-01-30T11:24:29.343Z,0.10
2023-01-30T11:27:53.337Z,0.20
2023-01-30T11:31:38.973Z,0.20
2023-01-30T11:35:15.392Z,0.20
2023-01-30T11:39:02.211Z,0.30
2023-01-30T11:42:30.247Z,0.30
2023-01-30T11:46:02.570Z,0.30
2023-01-30T11:49:47.118Z,0.30
2023-01-30T11:53:26.886Z,0.10
2023-01-30T11:57:05.009Z,0.20
2023-01-30T12:00:40.131Z,0.20
2023-01-30T12:04:09.835Z,0.10
2023-01-30T12:07:48.811Z,0.20
2023-01-30T12:11:27.392Z,0.10
2023-01-30T12:15:05.783Z,0.10
2023-01-30T12:18:49.984Z,0.20
2023-01-30T12:22:28.461Z,0.20
2023-01-30T12:26:09.603Z,0.20
2023-01-30T12:30:05.986Z,0.10
2023-01-30T12:33:35.225Z,0.20
2023-01-30T12:37:00.870Z,0.10
2023-01-30T12:40:28.240Z,0.10
2023-01-30T12:44:00.577Z,0.10
2023-01-30T12:47:23.707Z,0.20
2023-01-30T12:50:54.030Z,0.10
2023-01-30T12:54:34.080Z,0.10
2023-01-30T12:58:06.226Z,0.10
2023-01-30T13:01:50.029Z,0.20
2023-01-30T13:05:21.589Z,0.10
2023-01-30T13:08:59.489Z,0.10
2023-01-30T13:12:50.294Z,0.20
2023-01-30T13:16:22.703Z,0.20
2023-01-30T13:20:03.719Z,0.10
2023-01-30T13:23:39.947Z,0.10
2023-01-30T13:27:02.280Z,0.00
2023-01-30T13:30:31.771Z,0.20
2023-01-30T13:34:03.958Z,0.10
2023-01-30T13:37:45.150Z,0.10
2023-01-30T13:41:23.148Z,0.10
2023-01-30T13:44:43.562Z,0.10
2023-01-30T13:48:24.955Z,0.10
2023-01-30T13:51:55.652Z,0.10
2023-01-30T13:55:27.683Z,0.10
2023-01-30T13:59:07.226Z,0.20
2023-01-30T14:02:42.624Z,0.20
2023-01-30T14:06:30.250Z,0.30
2023-01-30T14:09:59.455Z,0.40
2023-01-30T14:13:30.148Z,0.40
2023-01-30T14:17:01.026Z,0.20
2023-01-30T14:20:35.823Z,0.20
2023-01-30T14:24:10.768Z,0.20
2023-01-30T14:28:04.244Z,0.10
2023-01-30T14:31:33.215Z,0.20
2023-01-30T14:35:21.260Z,0.10
2023-01-30T14:38:53.512Z,0.10
2023-01-30T14:42:29.275Z,0.10
2023-01-30T14:46:01.366Z,0.10
2023-01-30T14:49:42.939Z,0.10
2023-01-30T14:53:23.751Z,0.20
2023-01-30T14:56:48.545Z,0.10
2023-01-30T15:00:22.994Z,0.10
2023-01-30T15:03:52.356Z,0.10
2023-01-30T15:07:21.489Z,0.20
2023-01-30T15:11:05.973Z,0.30
2023-01-30T15:14:40.981Z,0.10
2023-01-30T15:18:11.337Z,0.10
2023-01-30T15:21:46.411Z,0.10
2023-01-30T15:25:21.519Z,0.10
2023-01-30T15:28:56.342Z,0.20
2023-01-30T15:32:43.928Z,0.10
2023-01-30T15:36:18.664Z,0.20
2023-01-30T15:39:47.711Z,0.20
2023-01-30T15:43:16.778Z,0.10
2023-01-30T15:46:44.634Z,0.10
2023-01-30T15:50:14.101Z,0.20
2023-01-30T15:53:38.366Z,0.20
2023-01-30T15:56:52.175Z,0.10
2023-01-30T16:00:39.120Z,0.20
2023-01-30T16:04:08.140Z,0.20
2023-01-30T16:07:36.965Z,0.20
2023-01-30T16:11:06.149Z,0.20
2023-01-30T16:14:34.929Z,0.20
2023-01-30T16:18:05.646Z,0.30
2023-01-30T16:21:38.074Z,0.30
2023-01-30T16:25:19.141Z,0.50
2023-01-30T16:28:48.473Z,0.90
2023-01-30T16:32:08.129Z,0.30
2023-01-30T16:35:35.924Z,0.30
2023-01-30T16:39:10.453Z,0.30
2023-01-30T16:42:39.466Z,0.30
2023-01-30T16:46:17.946Z,0.10
2023-01-30T16:49:32.327Z,0.10
2023-01-30T16:53:10.590Z,0.20
2023-01-30T16:56:40.194Z,0.10
2023-01-30T17:00:12.498Z,0.00
2023-01-30T17:03:38.451Z,0.10
2023-01-30T17:07:13.872Z,0.00
2023-01-30T17:10:42.657Z,0.10
2023-01-30T17:14:15.532Z,0.20
2023-01-30T17:17:40.267Z,0.10
2023-01-30T17:21:09.615Z,0.10
2023-01-30T17:24:38.641Z,0.10
2023-01-30T17:28:07.359Z,0.10
2023-01-30T17:31:37.035Z,0.10
2023-01-30T17:35:06.540Z,0.10
2023-01-30T17:38:28.262Z,0.10
2023-01-30T17:42:00.175Z,0.10
2023-01-30T17:45:29.194Z,0.10
2023-01-30T17:48:57.987Z,0.10
2023-01-30T17:52:27.636Z,0.10
2023-01-30T17:55:49.578Z,0.10
2023-01-30T17:59:18.501Z,0.10
2023-01-30T18:02:47.555Z,0.10
2023-01-30T18:06:16.889Z,0.10
2023-01-30T18:09:45.995Z,0.00
2023-01-30T18:13:15.223Z,0.10
2023-01-30T18:16:44.398Z,0.10
2023-01-30T18:20:16.504Z,0.00
2023-01-30T18:23:36.191Z,0.10
2023-01-30T18:27:05.070Z,0.10
2023-01-30T18:30:34.070Z,0.10
2023-01-30T18:34:04.346Z,0.10
2023-01-30T18:37:33.085Z,0.10
2023-01-30T18:41:02.225Z,0.10
2023-01-30T18:44:37.701Z,0.10
2023-01-30T18:48:07.014Z,0.10
2023-01-30T18:51:35.946Z,0.10
2023-01-30T18:55:05.291Z,0.00
2023-01-30T18:58:34.359Z,0.10
2023-01-30T19:02:06.360Z,0.10
2023-01-30T19:05:35.364Z,0.10
2023-01-30T19:09:04.517Z,0.10
2023-01-30T19:12:31.753Z,0.10
2023-01-30T19:16:01.195Z,0.10
2023-01-30T19:19:29.884Z,0.10
2023-01-30T19:22:51.934Z,0.10
2023-01-30T19:26:23.514Z,0.10
2023-01-30T19:29:52.477Z,0.20
2023-01-30T19:33:21.557Z,0.10
2023-01-30T19:36:59.512Z,0.10
2023-01-30T19:40:29.005Z,0.10
2023-01-30T19:43:58.503Z,0.10
2023-01-30T19:47:27.833Z,0.10
2023-01-30T19:50:56.862Z,0.20
2023-01-30T19:54:26.072Z,0.10
2023-01-30T19:57:55.324Z,0.10
2023-01-30T20:01:25.018Z,0.10
2023-01-30T20:04:57.114Z,0.20
2023-01-30T20:08:32.633Z,0.10
2023-01-30T20:12:08.236Z,0.10
2023-01-30T20:15:30.732Z,0.10
2023-01-30T20:18:59.768Z,0.10
2023-01-30T20:22:19.627Z,0.20
2023-01-30T20:25:44.197Z,0.10
2023-01-30T20:29:10.198Z,0.10
2023-01-30T20:32:29.576Z,0.20
2023-01-30T20:35:59.335Z,0.20
2023-01-30T20:39:28.345Z,0.10
2023-01-30T20:42:57.393Z,0.10
2023-01-30T20:50:14.507Z,0.10
2023-01-30T20:53:46.836Z,0.20
2023-01-30T20:57:18.700Z,0.10
2023-01-30T21:00:48.430Z,0.20
2023-01-30T21:04:17.837Z,0.10
2023-01-30T21:07:47.153Z,0.10
2023-01-30T21:11:16.586Z,0.10
2023-01-30T21:14:26.687Z,0.10
2023-01-30T21:17:55.675Z,0.00
2023-01-30T21:21:24.902Z,0.10
2023-01-30T21:24:54.137Z,0.10
2023-01-30T21:28:16.027Z,0.00
2023-01-30T21:31:47.871Z,0.00
2023-01-30T21:35:17.273Z,0.10
2023-01-30T21:38:44.405Z,0.10
2023-01-30T21:42:18.877Z,0.10
2023-01-30T21:45:48.789Z,0.00
2023-01-30T21:49:18.240Z,0.00
2023-01-30T21:52:31.753Z,0.00
2023-01-30T21:55:44.026Z,0.00
2023-01-30T21:59:13.514Z,0.00
2023-01-30T22:02:42.989Z,0.00
2023-01-30T22:06:12.502Z,0.00
2023-01-30T22:09:31.932Z,0.00
2023-01-30T22:13:00.616Z,0.10
2023-01-30T22:16:29.788Z,0.10
2023-01-30T22:19:58.942Z,0.00
2023-01-30T22:23:28.279Z,0.10
2023-01-30T22:26:57.354Z,0.00
2023-01-30T22:29:49.749Z,0.20
2023-01-30T22:33:14.413Z,0.00
2023-01-30T22:36:44.056Z,0.10
2023-01-30T22:40:12.530Z,0.00
2023-01-30T22:43:42.197Z,0.00
2023-01-30T22:47:14.095Z,0.00
2023-01-30T22:50:43.325Z,0.00
2023-01-30T22:54:12.695Z,0.00
2023-01-30T22:57:41.972Z,0.00
2023-01-30T23:01:00.667Z,0.10
2023-01-30T23:04:29.925Z,0.00
2023-01-30T23:07:59.328Z,0.10
2023-01-30T23:11:31.753Z,0.00
2023-01-30T23:15:00.941Z,0.00
2023-01-30T23:18:28.404Z,0.00
2023-01-30T23:25:40.286Z,0.00
2023-01-30T23:29:09.642Z,0.10
2023-01-30T23:32:42.095Z,0.00
2023-01-30T23:36:11.391Z,0.00
2023-01-30T23:39:40.664Z,0.00
2023-01-30T23:43:09.767Z,0.10
2023-01-30T23:46:39.159Z,0.00
2023-01-30T23:50:08.566Z,0.10
2023-01-30T23:54:08.084Z,0.00
2023-01-30T23:57:27.303Z,0.10
